Culiacán Rosales, México

9:52 AM MST en Enero 27, 2015 (GMT -0700)
Culiacan International | Change Station
CLOSE
Current Station
Aeropuerto
Location: Culiacan,
Altura: 105 ft
Estaciones meteorológicas cercanas

Alt 105 ft 24.77 °N, 107.47 °W | Updated 1 hour ago

Scattered Clouds
Nubes dispersas
73 ° F
Sensación térmica 73 ° F
N
0
Viento Variable Viento desde Norte

Hoy
Alta -- | Baja -- ° F
--% Posibilidad de precipitaciones
Ayer
Alta -- | Baja -- ° F
Precip. -- pul
6:54 AM 5:51 PM
Cuarto creciente, 55% visible
Presión 30.06 pul
Visibilidad 10.0 Millas
Nubes Nubes dispersas 5000 ft
Nubes dispersas 25000 ft
Punto de rocío 61 ° F
Humedad 65%
Precipitaciones 0.00 pul
Espesor de la nieve No disponible.
UV 1 de una escala de 12
Polen No disponible.
Calidad del aire No disponible.
Flu Activity No disponible.
METAR MMCL 271541Z 00000KT 10SM SCT050 SCT250 23/16 A3006 RMK 8/501

More Conditions Fewer Conditions

Presión 30.06 pul
Visibilidad 10.0 Millas
Nubes Nubes dispersas 5000 ft
Nubes dispersas 25000 ft
Punto de rocío 61 ° F
Humedad 65%
Precipitaciones 0.00 pul
Espesor de la nieve No disponible.
UV 1 de una escala de 12
Polen No disponible.
Calidad del aire No disponible.
Flu Activity No disponible.
METAR MMCL 271541Z 00000KT 10SM SCT050 SCT250 23/16 A3006 RMK 8/501

More Conditions Fewer Conditions

10-Day Weather Forecast

Almanac

Astronomía

Jan. 27, 2015 Salida Puesta
Hora real
Crepúsculo civil
Crepúsculo náutico
Crepúsculo astronómico
Luna
Horas de luz
Horas de luz
Tomorrow will be .
, % of the Moon is Illuminated

Extremos de hoy

Máximos del país Bajas del país

Community

WunderPhotos

Upload Photos

1,790,725 ¡fotos cargadas!

WunderBlogs® & News

Nearby

Calidad del aire

  Calidad del aire Índice AQ Contaminante
Not available.

Grosos de nieve

Estación Profundido Altura

Actividad de terremotos

Ciudad Distance Mag. Tiempo y dato
Magnitud mínima muestra es 2,5.

Temperaturas de aguas costeras

Lugar Temperatura

Estaciones meteorológicas cercanas